Time;durP1;ratioP1;P1;durP2;ratioP2;P2;SDS_P1;SDS_P2;PMS_P1;PMS_P2;Temp;Humidity;BMP_temperature;BMP_pressure;BME280_temperature;BME280_humidity;BME280_pressure;Samples;Min_cycle;Max_cycle;Signal;HPM_P1;HPM_P2
2022/04/21 04:47:26;;;;;;;2.15;2.05;;;0.40;99.90;;;;;;5682089;23;20232;-67
2022/04/21 04:49:53;;;;;;;1.95;1.95;;;0.50;99.90;;;;;;4937521;29;20209;-68
2022/04/21 04:52:20;;;;;;;2.22;2.13;;;0.50;99.90;;;;;;4937595;29;20315;-68
2022/04/21 04:54:47;;;;;;;1.80;1.70;;;0.60;99.90;;;;;;4937544;29;20247;-67
2022/04/21 04:57:13;;;;;;;2.00;1.90;;;0.70;99.90;;;;;;4933217;29;20328;-67
2022/04/21 04:59:40;;;;;;;1.73;1.63;;;0.80;99.90;;;;;;4919479;29;20629;-67
2022/04/21 05:02:07;;;;;;;1.95;1.90;;;;;;;;;;4918674;29;20738;-68
2022/04/21 05:04:36;;;;;;;2.00;1.90;;;1.00;99.90;;;;;;4918539;29;20206;-68
2022/04/21 05:07:03;;;;;;;1.52;1.52;;;1.30;99.90;;;;;;4917825;29;20604;-67
2022/04/21 05:09:30;;;;;;;2.40;2.25;;;1.70;99.90;;;;;;4918233;29;20201;-67
2022/04/21 05:11:57;;;;;;;2.25;2.15;;;2.30;99.90;;;;;;4918006;29;20264;-67
2022/04/21 05:14:25;;;;;;;1.77;1.67;;;2.90;99.90;;;;;;4918147;29;20293;-68
2022/04/21 05:16:52;;;;;;;1.40;1.40;;;3.50;99.90;;;;;;4918469;29;20298;-64
2022/04/21 05:19:21;;;;;;;1.30;1.30;;;4.30;99.90;;;;;;4918290;29;20300;-65
2022/04/21 05:21:50;;;;;;;1.67;1.67;;;5.00;99.90;;;;;;4918159;29;20643;-65
2022/04/21 05:24:18;;;;;;;1.95;1.88;;;5.70;99.90;;;;;;4918092;29;20321;-65
2022/04/21 05:26:46;;;;;;;2.38;2.28;;;6.60;99.90;;;;;;4917733;29;20639;-65
2022/04/21 05:31:59;;;;;;;2.97;2.78;;;8.10;99.90;;;;;;4918080;29;20693;-65
2022/04/21 05:34:27;;;;;;;2.88;2.78;;;8.70;98.10;;;;;;4920107;29;20339;-65
2022/04/21 05:36:58;;;;;;;2.70;2.50;;;9.30;92.60;;;;;;4923615;29;20213;-66
2022/04/21 05:39:27;;;;;;;2.58;2.47;;;9.80;92.80;;;;;;4922726;29;20192;-65
2022/04/21 05:41:56;;;;;;;1.95;1.85;;;10.50;92.10;;;;;;4921546;29;20220;-66
2022/04/21 05:44:24;;;;;;;1.77;1.67;;;11.20;80.30;;;;;;4922253;29;20205;-67
2022/04/21 05:46:52;;;;;;;2.05;1.75;;;12.00;73.20;;;;;;4921682;29;20205;-67
2022/04/21 05:49:20;;;;;;;1.92;1.83;;;13.00;62.50;;;;;;4921849;29;20251;-66
2022/04/21 05:51:48;;;;;;;2.10;1.83;;;14.00;56.40;;;;;;4922812;29;20221;-67
2022/04/21 05:54:18;;;;;;;1.60;1.50;;;14.90;51.20;;;;;;4922652;29;20273;-66
2022/04/21 05:56:46;;;;;;;1.42;1.33;;;15.80;39.80;;;;;;4922218;29;20253;-66
2022/04/21 05:59:13;;;;;;;1.30;1.30;;;16.70;38.80;;;;;;4921606;29;20213;-66
2022/04/21 06:01:40;;;;;;;1.15;1.15;;;17.50;40.80;;;;;;4921165;29;20256;-66
2022/04/21 06:04:07;;;;;;;1.65;1.55;;;18.20;41.50;;;;;;4917258;29;20243;-67
2022/04/21 06:06:33;;;;;;;1.65;1.65;;;18.90;40.60;;;;;;4918020;29;20291;-67
2022/04/21 06:09:01;;;;;;;2.33;2.17;;;19.50;40.20;;;;;;4921022;29;20251;-67
2022/04/21 06:11:32;;;;;;;2.20;2.05;;;19.80;38.20;;;;;;4922355;29;20551;-67
2022/04/21 06:13:59;;;;;;;2.22;2.13;;;20.20;36.70;;;;;;4922493;29;20629;-68
2022/04/21 06:16:26;;;;;;;2.55;2.20;;;20.60;36.90;;;;;;4922463;29;20284;-67
2022/04/21 06:18:53;;;;;;;2.28;2.17;;;20.80;35.90;;;;;;4922078;29;20256;-67
2022/04/21 06:21:21;;;;;;;2.50;1.98;;;21.20;35.10;;;;;;4921656;29;20208;-68
2022/04/21 06:23:48;;;;;;;2.13;1.98;;;21.80;38.50;;;;;;4921365;29;20657;-67
2022/04/21 06:26:16;;;;;;;3.25;2.17;;;22.40;38.10;;;;;;4921694;29;20216;-67
2022/04/21 06:28:45;;;;;;;1.80;1.30;;;23.00;38.40;;;;;;4920875;29;20228;-67
2022/04/21 06:31:13;;;;;;;1.90;1.90;;;23.70;39.10;;;;;;4922699;29;20213;-67
2022/04/21 06:33:40;;;;;;;1.98;1.90;;;24.20;40.60;;;;;;4922023;29;20268;-67
2022/04/21 06:36:07;;;;;;;2.20;2.10;;;;;;;;;;4921611;29;20592;-67
2022/04/21 06:38:35;;;;;;;2.30;2.20;;;;;;;;;;4921154;29;20692;-67
2022/04/21 06:41:03;;;;;;;2.10;2.00;;;;;;;;;;4921545;29;20643;-67
2022/04/21 06:49:11;;;;;;;3.78;2.50;;;24.80;33.20;;;;;;4916706;29;20714;-67
2022/04/21 06:51:40;;;;;;;1.85;1.75;;;24.40;35.10;;;;;;4916874;29;20637;-67
2022/04/21 06:54:11;;;;;;;2.80;2.60;;;25.10;32.80;;;;;;4917041;29;20241;-67
2022/04/21 06:56:43;;;;;;;3.05;2.75;;;25.20;33.70;;;;;;4918228;29;20185;-67
2022/04/21 06:59:12;;;;;;;2.80;2.70;;;25.40;32.70;;;;;;4920843;29;20204;-67
2022/04/21 07:01:41;;;;;;;2.42;2.25;;;25.30;33.60;;;;;;4920541;29;20721;-67
2022/04/21 07:04:10;;;;;;;2.35;2.15;;;;;;;;;;4921066;29;20201;-67
2022/04/21 07:06:37;;;;;;;4.43;2.72;;;;;;;;;;4920550;29;20207;-67
2022/04/21 07:09:04;;;;;;;2.55;2.28;;;;;;;;;;4920608;29;20315;-67
2022/04/21 07:11:31;;;;;;;2.50;2.30;;;26.30;36.90;;;;;;4920618;29;20219;-67
2022/04/21 07:13:58;;;;;;;4.45;4.05;;;27.00;36.20;;;;;;4920206;29;20319;-67
2022/04/21 07:16:25;;;;;;;2.45;2.35;;;25.90;36.30;;;;;;4920564;29;20366;-67
2022/04/21 07:18:56;;;;;;;2.80;2.60;;;26.50;37.10;;;;;;4920470;29;20375;-67
2022/04/21 07:21:23;;;;;;;4.65;3.65;;;27.30;35.00;;;;;;4920244;29;20654;-67
2022/04/21 07:23:50;;;;;;;3.83;3.63;;;25.90;37.10;;;;;;4920163;29;20288;-68
2022/04/21 07:26:17;;;;;;;3.83;3.53;;;26.00;36.50;;;;;;4920453;29;20205;-68
2022/04/21 07:28:45;;;;;;;3.65;3.35;;;;;;;;;;4920279;29;20253;-69
2022/04/21 07:31:11;;;;;;;3.28;2.70;;;24.70;41.50;;;;;;4920023;29;20669;-68
2022/04/21 07:33:38;;;;;;;3.17;2.97;;;25.50;35.70;;;;;;4920063;29;20779;-68
2022/04/21 07:36:07;;;;;;;3.60;3.33;;;24.70;35.90;;;;;;4919871;29;20776;-68
2022/04/21 07:38:34;;;;;;;2.92;2.72;;;25.10;32.00;;;;;;4920194;29;20229;-68
2022/04/21 07:41:01;;;;;;;4.25;3.95;;;24.80;28.80;;;;;;4920252;29;20256;-68
2022/04/21 07:43:28;;;;;;;4.20;3.53;;;24.80;27.80;;;;;;4919925;29;20271;-68
2022/04/21 07:45:55;;;;;;;3.38;3.08;;;24.20;28.80;;;;;;4920103;29;20295;-68
2022/04/21 07:48:22;;;;;;;3.05;2.85;;;24.50;30.20;;;;;;4920052;29;20728;-68
2022/04/21 07:50:49;;;;;;;2.40;2.30;;;25.30;28.40;;;;;;4919719;29;20730;-68
2022/04/21 07:53:18;;;;;;;3.50;3.30;;;25.30;29.60;;;;;;4919871;29;20252;-68
2022/04/21 07:55:46;;;;;;;5.03;4.47;;;25.10;28.90;;;;;;4919918;29;20211;-68
2022/04/21 07:58:14;;;;;;;3.80;3.50;;;23.80;29.40;;;;;;4920258;29;20311;-68
2022/04/21 08:00:41;;;;;;;3.90;3.60;;;23.30;29.40;;;;;;4919463;29;20300;-68
2022/04/21 08:03:09;;;;;;;4.53;3.60;;;22.30;29.90;;;;;;4919730;29;20295;-68
2022/04/21 08:05:36;;;;;;;3.65;3.45;;;21.60;30.20;;;;;;4919739;29;20232;-68
2022/04/21 08:08:03;;;;;;;4.63;4.20;;;21.30;30.10;;;;;;4918772;29;20224;-68
2022/04/21 08:10:31;;;;;;;4.82;4.10;;;19.90;31.70;;;;;;4919477;29;20236;-68
2022/04/21 08:12:58;;;;;;;4.38;4.18;;;19.20;31.70;;;;;;4919162;29;20221;-67
2022/04/21 08:15:27;;;;;;;3.53;3.33;;;17.70;33.00;;;;;;4919331;29;20295;-67
2022/04/21 08:17:56;;;;;;;4.35;4.05;;;17.20;33.40;;;;;;4919410;29;20252;-67
2022/04/21 08:20:23;;;;;;;4.75;4.35;;;16.70;33.30;;;;;;4919534;29;20303;-67
2022/04/21 08:22:50;;;;;;;4.07;3.60;;;15.60;34.20;;;;;;4919053;29;20652;-67
2022/04/21 08:33:33;;;;;;;4.50;4.15;;;14.10;35.10;;;;;;4919138;29;20329;-67
2022/04/21 08:36:01;;;;;;;5.65;4.10;;;13.70;36.00;;;;;;4919201;29;20251;-67
2022/04/21 08:38:29;;;;;;;5.28;4.40;;;13.20;36.00;;;;;;4918982;29;20293;-67
2022/04/21 08:40:58;;;;;;;5.13;4.65;;;12.90;37.20;;;;;;4919148;29;20292;-67
2022/04/21 08:43:28;;;;;;;4.72;4.30;;;12.70;37.00;;;;;;4919091;29;20201;-66
2022/04/21 08:45:56;;;;;;;5.28;4.07;;;12.60;37.50;;;;;;4918770;29;20668;-67
2022/04/21 08:48:24;;;;;;;4.43;4.13;;;12.50;38.40;;;;;;4918753;29;20281;-67
2022/04/21 08:50:53;;;;;;;8.48;4.65;;;12.50;37.40;;;;;;4918508;29;20656;-67
2022/04/21 08:53:23;;;;;;;6.40;4.50;;;12.40;35.50;;;;;;4918721;29;20316;-67
2022/04/21 08:55:52;;;;;;;5.35;4.50;;;12.20;36.30;;;;;;4918858;29;20601;-67
2022/04/21 08:58:19;;;;;;;5.20;4.22;;;12.20;36.70;;;;;;4918669;29;20312;-67
2022/04/21 09:00:48;;;;;;;4.85;4.38;;;12.20;36.50;;;;;;4918416;29;20748;-67
2022/04/21 09:03:15;;;;;;;5.10;4.22;;;12.20;35.90;;;;;;4918325;29;20201;-66
2022/04/21 09:05:44;;;;;;;4.18;3.88;;;12.30;36.70;;;;;;4918641;29;20244;-67
2022/04/21 09:08:20;;;;;;;5.40;4.78;;;12.30;36.30;;;;;;4918258;29;20289;-67
2022/04/21 09:10:47;;;;;;;5.15;4.65;;;12.30;36.00;;;;;;4918572;29;20194;-67
2022/04/21 09:13:14;;;;;;;4.95;4.10;;;12.10;36.90;;;;;;4918972;29;20253;-67
2022/04/21 09:15:43;;;;;;;4.40;4.03;;;12.00;36.50;;;;;;4924658;29;20209;-67
2022/04/21 09:18:14;;;;;;;4.65;4.22;;;12.10;36.80;;;;;;4921667;29;20225;-66
2022/04/21 09:20:41;;;;;;;5.32;4.88;;;12.10;37.40;;;;;;4918077;29;20553;-66
2022/04/21 09:23:10;;;;;;;4.43;4.03;;;12.20;37.30;;;;;;4918008;29;20205;-66
2022/04/21 09:25:47;;;;;;;4.65;4.25;;;12.30;37.20;;;;;;4918319;29;20209;-66
2022/04/21 09:28:22;;;;;;;5.43;4.35;;;12.30;37.60;;;;;;4918399;29;20228;-66
2022/04/21 09:30:51;;;;;;;4.55;4.10;;;12.40;37.80;;;;;;4918210;29;20288;-66
2022/04/21 09:33:27;;;;;;;4.55;4.15;;;12.50;38.10;;;;;;4917738;29;20320;-67
2022/04/21 09:35:56;;;;;;;5.13;3.92;;;12.60;37.20;;;;;;4917877;29;20189;-67
2022/04/21 09:38:23;;;;;;;4.75;4.35;;;12.70;37.30;;;;;;4918195;29;20324;-67
2022/04/21 09:40:50;;;;;;;5.25;4.57;;;12.80;36.50;;;;;;4917906;29;20300;-67
2022/04/21 09:43:27;;;;;;;4.63;4.32;;;12.60;37.40;;;;;;4917937;29;20288;-67
2022/04/21 09:46:09;;;;;;;8.13;5.15;;;12.50;37.20;;;;;;4918511;29;20192;-68
2022/04/21 09:48:37;;;;;;;6.78;4.60;;;12.50;37.50;;;;;;4917732;29;20233;-68
2022/04/21 09:51:10;;;;;;;4.40;4.10;;;12.50;38.00;;;;;;4918042;29;20209;-68
2022/04/21 09:53:50;;;;;;;4.47;4.18;;;12.60;38.80;;;;;;4917758;29;20232;-68
2022/04/21 09:56:17;;;;;;;4.82;4.30;;;12.70;38.50;;;;;;4917843;29;20209;-68
2022/04/21 09:58:46;;;;;;;5.43;4.95;;;12.80;37.90;;;;;;4917635;29;20255;-68
2022/04/21 10:01:13;;;;;;;6.75;4.20;;;12.80;37.40;;;;;;4917447;29;20637;-68
2022/04/21 10:03:43;;;;;;;4.25;3.95;;;12.60;37.90;;;;;;4917812;29;20296;-68
2022/04/21 10:06:10;;;;;;;4.80;4.35;;;12.70;38.60;;;;;;4917838;29;20300;-68
2022/04/21 10:08:40;;;;;;;5.13;4.60;;;12.80;37.40;;;;;;4917775;29;20233;-69
2022/04/21 10:11:08;;;;;;;4.55;4.15;;;12.80;37.70;;;;;;4917760;29;20205;-68
2022/04/21 10:13:36;;;;;;;4.38;3.75;;;12.90;38.10;;;;;;4917259;29;20230;-68
2022/04/21 10:16:03;;;;;;;6.30;4.55;;;12.90;38.20;;;;;;4917560;29;20573;-68
2022/04/21 10:18:30;;;;;;;4.18;3.88;;;12.90;38.30;;;;;;4917704;29;20229;-68
2022/04/21 10:20:59;;;;;;;4.53;4.00;;;13.00;38.50;;;;;;4917862;29;20613;-68
2022/04/21 10:23:28;;;;;;;4.20;3.90;;;13.00;38.40;;;;;;4917657;29;20237;-68
2022/04/21 10:26:02;;;;;;;4.05;3.75;;;13.00;38.40;;;;;;4917803;29;20212;-68
2022/04/21 10:28:39;;;;;;;4.68;4.28;;;13.10;38.50;;;;;;4917590;29;20308;-68
2022/04/21 10:31:32;;;;;;;5.47;4.97;;;13.10;39.10;;;;;;4916848;29;20719;-67
2022/04/21 10:34:01;;;;;;;6.55;4.85;;;13.10;38.80;;;;;;4917644;29;20285;-67
2022/04/21 10:37:04;;;;;;;4.90;4.50;;;13.10;39.80;;;;;;4917339;29;20245;-68
2022/04/21 10:39:31;;;;;;;4.15;3.85;;;13.10;39.30;;;;;;4917403;29;20296;-67
2022/04/21 10:42:17;;;;;;;4.60;4.28;;;13.10;39.80;;;;;;4917541;29;20300;-67
2022/04/21 10:44:46;;;;;;;4.65;3.85;;;13.10;39.50;;;;;;4917045;29;20276;-68
2022/04/21 10:47:35;;;;;;;3.80;3.47;;;13.20;39.30;;;;;;4917742;29;20320;-68
2022/04/21 10:50:16;;;;;;;5.10;4.60;;;13.10;38.90;;;;;;4917047;29;20584;-68
2022/04/21 10:58:52;;;;;;;3.92;3.63;;;12.90;39.80;;;;;;4917189;29;20220;-67
2022/04/21 11:01:22;;;;;;;3.53;3.33;;;12.90;40.30;;;;;;4917301;29;20200;-67
2022/04/21 11:04:11;;;;;;;3.80;3.50;;;13.00;39.80;;;;;;4917191;29;20209;-66
2022/04/21 11:06:45;;;;;;;4.32;3.50;;;13.10;39.50;;;;;;4917253;29;20201;-66
2022/04/21 11:09:39;;;;;;;3.63;3.33;;;13.20;40.10;;;;;;4917207;29;20291;-67
2022/04/21 11:12:07;;;;;;;3.45;2.85;;;13.30;40.70;;;;;;4916942;29;20200;-66
2022/04/21 11:14:36;;;;;;;3.60;3.38;;;13.50;40.00;;;;;;4916908;29;20296;-66
2022/04/21 11:17:04;;;;;;;4.00;3.70;;;13.50;39.10;;;;;;4916521;29;20213;-66
2022/04/21 11:19:36;;;;;;;3.15;2.95;;;13.50;38.40;;;;;;4916805;29;20216;-63
2022/04/21 11:22:05;;;;;;;3.03;2.72;;;13.40;38.30;;;;;;4916396;29;20617;-63
2022/04/21 11:25:07;;;;;;;3.47;3.28;;;13.40;38.60;;;;;;4916499;29;20297;-63
2022/04/21 11:27:41;;;;;;;3.22;3.13;;;13.40;38.90;;;;;;4916636;29;20312;-63
2022/04/21 11:30:10;;;;;;;3.60;3.40;;;13.40;39.70;;;;;;4917017;29;20224;-63
2022/04/21 11:32:38;;;;;;;3.13;2.92;;;13.50;39.10;;;;;;4916858;29;20288;-63
2022/04/21 11:35:06;;;;;;;3.00;2.65;;;13.40;38.60;;;;;;4917208;29;20221;-63
2022/04/21 11:38:00;;;;;;;2.85;2.72;;;13.30;38.40;;;;;;4916959;29;20317;-63
2022/04/21 11:40:32;;;;;;;4.35;4.05;;;13.40;39.30;;;;;;4883200;29;20233;-63
2022/04/21 11:43:02;;;;;;;3.90;3.60;;;13.30;39.10;;;;;;4917166;29;20642;-62
2022/04/21 11:45:30;;;;;;;3.63;3.33;;;13.40;39.10;;;;;;4925425;29;20273;-63
2022/04/21 11:47:58;;;;;;;2.83;2.63;;;13.40;39.40;;;;;;4926261;29;20264;-64
2022/04/21 11:50:26;;;;;;;2.67;2.47;;;13.50;38.60;;;;;;4926256;29;20206;-63
2022/04/21 11:52:55;;;;;;;3.28;3.17;;;13.50;38.60;;;;;;4922052;29;20577;-64
2022/04/21 11:55:27;;;;;;;3.53;3.20;;;13.60;38.80;;;;;;4920208;29;20257;-63
2022/04/21 11:57:55;;;;;;;3.60;3.40;;;13.70;38.90;;;;;;4919925;29;20327;-63
2022/04/21 12:08:46;;;;;;;4.10;3.80;;;13.80;39.50;;;;;;4919695;29;20220;-63
2022/04/21 12:11:15;;;;;;;4.53;4.18;;;13.90;39.20;;;;;;4919665;29;20305;-64
2022/04/21 12:13:44;;;;;;;3.95;3.65;;;13.90;38.40;;;;;;4919525;29;20316;-63
2022/04/21 12:16:37;;;;;;;4.72;4.43;;;13.90;38.40;;;;;;4919368;29;20216;-63
2022/04/21 12:19:12;;;;;;;5.10;4.70;;;13.90;38.70;;;;;;4919429;29;20221;-63
2022/04/21 12:21:39;;;;;;;4.40;3.83;;;13.90;39.50;;;;;;4919600;29;20214;-63
2022/04/21 12:24:14;;;;;;;4.47;4.07;;;14.00;39.50;;;;;;4922044;29;20292;-63
2022/04/21 12:26:48;;;;;;;5.35;4.40;;;14.10;39.50;;;;;;4922859;29;20700;-63
2022/04/21 12:29:17;;;;;;;4.57;4.18;;;14.20;39.70;;;;;;4920704;29;20189;-63
2022/04/21 12:31:47;;;;;;;5.05;4.63;;;14.20;40.30;;;;;;4918996;29;20653;-63
2022/04/21 12:34:26;;;;;;;5.57;5.05;;;14.20;39.80;;;;;;4919129;29;20221;-63
2022/04/21 12:36:55;;;;;;;5.55;4.63;;;14.20;39.30;;;;;;4919021;29;20284;-63
2022/04/21 12:39:23;;;;;;;3.65;3.38;;;14.20;39.60;;;;;;4919264;29;20297;-63
2022/04/21 12:41:51;;;;;;;4.70;4.32;;;14.30;40.30;;;;;;4918981;29;20209;-63
2022/04/21 12:44:23;;;;;;;5.05;4.65;;;14.30;40.20;;;;;;4925777;29;20201;-64
2022/04/21 12:47:01;;;;;;;4.78;4.38;;;14.20;39.60;;;;;;4933207;29;20586;-66
2022/04/21 12:49:51;;;;;;;4.53;4.20;;;14.30;40.50;;;;;;4934328;29;20224;-65
2022/04/21 12:52:37;;;;;;;4.72;4.22;;;14.30;39.70;;;;;;4935077;29;20244;-64
2022/04/21 12:55:07;;;;;;;4.20;3.85;;;14.30;40.20;;;;;;4923184;29;20737;-64
2022/04/21 12:57:35;;;;;;;3.50;3.30;;;14.30;40.40;;;;;;4924617;29;20230;-64
2022/04/21 13:00:06;;;;;;;3.65;3.35;;;14.40;40.10;;;;;;4924315;29;20228;-64
2022/04/21 13:02:33;;;;;;;5.38;4.90;;;14.40;40.10;;;;;;4922361;29;20190;-64
2022/04/21 13:05:00;;;;;;;3.70;3.50;;;14.40;39.90;;;;;;4919523;29;20293;-64
2022/04/21 13:07:28;;;;;;;7.57;5.90;;;14.40;40.40;;;;;;4918633;29;20221;-64
2022/04/21 13:09:55;;;;;;;11.57;7.13;;;14.40;40.20;;;;;;4918671;29;20209;-64
2022/04/21 13:12:22;;;;;;;11.40;7.55;;;14.40;40.40;;;;;;4918168;29;20633;-64
2022/04/21 13:14:49;;;;;;;9.30;6.07;;;14.40;40.20;;;;;;4918116;29;20315;-64
2022/04/21 13:17:18;;;;;;;4.93;4.53;;;14.40;39.80;;;;;;4918135;29;20663;-64
2022/04/21 13:19:44;;;;;;;8.80;6.18;;;14.30;39.70;;;;;;4918657;29;20205;-63
2022/04/21 13:22:11;;;;;;;4.97;4.50;;;14.30;40.30;;;;;;4918352;29;20377;-63
2022/04/21 13:24:38;;;;;;;11.65;5.47;;;14.30;40.10;;;;;;4918436;29;20289;-63
2022/04/21 13:27:06;;;;;;;4.93;4.50;;;14.40;40.60;;;;;;4917813;29;20253;-64
2022/04/21 13:29:33;;;;;;;5.05;4.65;;;14.40;40.10;;;;;;4918083;29;20277;-64
2022/04/21 13:34:46;;;;;;;3.90;3.30;;;14.50;40.30;;;;;;4917865;29;20216;-64
2022/04/21 13:37:13;;;;;;;3.72;3.42;;;14.50;40.40;;;;;;4917810;29;20706;-64
2022/04/21 13:39:40;;;;;;;3.85;3.55;;;14.50;39.80;;;;;;4917647;29;20678;-64
2022/04/21 13:42:08;;;;;;;3.97;3.67;;;14.50;40.20;;;;;;4918109;29;20304;-64
2022/04/21 13:44:35;;;;;;;4.10;3.78;;;14.50;40.60;;;;;;4918609;29;20248;-64
2022/04/21 13:47:03;;;;;;;5.15;3.83;;;14.60;41.00;;;;;;4917737;29;20295;-64
2022/04/21 13:49:46;;;;;;;13.43;3.78;;;14.70;40.40;;;;;;4917430;29;20686;-64
2022/04/21 13:52:14;;;;;;;3.22;3.13;;;14.70;40.20;;;;;;4917270;29;20193;-64
2022/04/21 13:54:41;;;;;;;3.50;3.30;;;14.80;40.40;;;;;;4917077;29;20316;-64
2022/04/21 13:57:09;;;;;;;3.10;2.83;;;14.70;40.00;;;;;;4917687;29;20280;-65
2022/04/21 13:59:36;;;;;;;3.85;3.55;;;14.80;40.30;;;;;;4917534;29;20640;-65
2022/04/21 14:02:03;;;;;;;3.45;3.25;;;14.90;39.40;;;;;;4917137;29;20292;-65
2022/04/21 14:04:30;;;;;;;4.00;3.70;;;14.80;39.20;;;;;;4917279;29;20293;-65
2022/04/21 14:06:57;;;;;;;3.10;2.80;;;14.70;39.50;;;;;;4916440;29;20237;-65
2022/04/21 14:09:25;;;;;;;3.33;3.13;;;14.70;39.70;;;;;;4917120;29;20732;-65
2022/04/21 14:11:52;;;;;;;3.40;3.10;;;14.70;40.20;;;;;;4917141;29;20269;-65
2022/04/21 14:14:19;;;;;;;2.88;2.78;;;14.80;39.80;;;;;;4917238;29;20319;-64
2022/04/21 14:16:46;;;;;;;3.58;3.03;;;14.70;40.00;;;;;;4917464;29;20300;-65
2022/04/21 14:19:13;;;;;;;2.45;2.30;;;14.70;39.40;;;;;;4917165;29;20300;-64
2022/04/21 14:21:42;;;;;;;3.35;3.25;;;14.60;39.50;;;;;;4917062;29;20296;-64
2022/04/21 14:24:09;;;;;;;3.53;3.33;;;14.70;40.30;;;;;;4917348;29;20621;-64
2022/04/21 14:26:37;;;;;;;5.30;3.40;;;14.70;40.10;;;;;;4916818;29;20296;-64
2022/04/21 14:29:06;;;;;;;3.38;3.10;;;14.70;40.20;;;;;;4917033;29;20660;-64
2022/04/21 14:31:33;;;;;;;3.40;3.20;;;14.70;40.60;;;;;;4917555;29;20292;-64
2022/04/21 14:34:00;;;;;;;3.30;3.00;;;14.70;41.00;;;;;;4917078;29;20292;-64
2022/04/21 14:36:27;;;;;;;3.92;3.72;;;14.60;41.20;;;;;;4917062;29;20317;-65
2022/04/21 14:44:24;;;;;;;4.57;3.90;;;14.60;41.60;;;;;;4917373;29;20196;-65
2022/04/21 14:46:54;;;;;;;3.55;3.28;;;14.60;42.10;;;;;;4917218;29;20236;-65
2022/04/21 14:49:21;;;;;;;6.47;3.25;;;14.60;42.30;;;;;;4917147;29;20255;-65
2022/04/21 14:51:48;;;;;;;4.53;3.60;;;14.70;42.30;;;;;;4917519;29;20205;-66
2022/04/21 14:54:15;;;;;;;3.08;2.90;;;14.70;42.80;;;;;;4917209;29;20292;-65
2022/04/21 14:56:43;;;;;;;4.43;3.25;;;14.80;42.30;;;;;;4916530;29;20213;-63
2022/04/21 14:59:11;;;;;;;4.57;3.72;;;14.80;42.60;;;;;;4916738;29;20209;-64
2022/04/21 15:01:39;;;;;;;4.80;4.25;;;14.90;43.10;;;;;;4916775;29;20300;-64
2022/04/21 15:04:06;;;;;;;5.55;4.07;;;14.90;42.90;;;;;;4916411;29;20646;-64
2022/04/21 15:06:33;;;;;;;4.45;3.63;;;14.90;42.90;;;;;;4916666;29;20284;-64
2022/04/21 15:09:00;;;;;;;6.20;4.32;;;14.90;43.20;;;;;;4916227;29;20316;-63
2022/04/21 15:11:27;;;;;;;3.88;3.58;;;14.80;43.40;;;;;;4916424;29;20212;-64
2022/04/21 15:13:56;;;;;;;3.95;3.70;;;14.80;42.90;;;;;;4916646;29;20292;-64
2022/04/21 15:16:23;;;;;;;3.25;2.67;;;14.80;42.90;;;;;;4917047;29;20240;-64
2022/04/21 15:18:50;;;;;;;4.28;3.65;;;14.80;43.00;;;;;;4919662;29;20316;-64
2022/04/21 15:21:17;;;;;;;3.90;3.58;;;14.80;43.60;;;;;;4920467;29;20233;-64
2022/04/21 15:23:44;;;;;;;4.43;4.13;;;14.90;43.50;;;;;;4920517;29;20209;-63
2022/04/21 15:26:12;;;;;;;4.32;4.03;;;14.90;43.50;;;;;;4920257;29;20297;-63
2022/04/21 15:28:39;;;;;;;4.00;3.80;;;14.80;42.90;;;;;;4920155;29;20228;-63
2022/04/21 15:31:08;;;;;;;4.93;4.45;;;14.70;43.40;;;;;;4920142;29;20248;-63
2022/04/21 15:33:36;;;;;;;5.05;4.63;;;14.60;44.00;;;;;;4920250;29;20205;-63
2022/04/21 15:36:03;;;;;;;9.07;5.35;;;14.50;43.90;;;;;;4920179;29;20562;-63
2022/04/21 15:38:30;;;;;;;4.78;4.47;;;14.50;44.20;;;;;;4919735;29;20236;-63
2022/04/21 15:40:57;;;;;;;4.85;4.55;;;14.50;44.60;;;;;;4920315;29;20626;-63
2022/04/21 15:43:24;;;;;;;4.70;4.30;;;14.50;44.90;;;;;;4920181;29;20232;-64
2022/04/21 15:45:51;;;;;;;4.85;3.20;;;14.50;45.20;;;;;;4919793;29;20683;-64
2022/04/21 15:48:20;;;;;;;3.53;3.40;;;14.50;45.50;;;;;;4920014;29;20229;-64
2022/04/21 15:50:47;;;;;;;4.90;4.35;;;14.50;45.30;;;;;;4919764;29;20238;-64
2022/04/21 15:58:51;;;;;;;4.07;3.58;;;14.50;45.00;;;;;;4919973;29;20224;-66
2022/04/21 16:01:19;;;;;;;4.60;4.28;;;14.40;45.80;;;;;;4919774;29;20205;-67
2022/04/21 16:03:48;;;;;;;6.53;5.03;;;14.40;45.70;;;;;;4920372;29;20209;-67
2022/04/21 16:06:15;;;;;;;6.35;4.60;;;14.30;45.50;;;;;;4922040;29;20292;-67
2022/04/21 16:08:44;;;;;;;6.90;4.00;;;14.30;46.20;;;;;;4920498;29;20244;-67
2022/04/21 16:11:11;;;;;;;6.30;4.10;;;14.30;46.00;;;;;;4919550;29;20215;-66
2022/04/21 16:13:38;;;;;;;4.05;3.60;;;14.30;46.40;;;;;;4919452;29;20237;-66
2022/04/21 16:16:05;;;;;;;4.97;3.75;;;14.30;46.60;;;;;;4919209;29;20584;-66
2022/04/21 16:18:32;;;;;;;4.45;3.97;;;14.30;47.00;;;;;;4919360;29;20315;-65
2022/04/21 16:21:01;;;;;;;5.85;3.92;;;14.30;46.70;;;;;;4919525;29;20238;-65
2022/04/21 16:23:28;;;;;;;3.53;3.33;;;14.30;46.10;;;;;;4919322;29;20284;-66
2022/04/21 16:25:54;;;;;;;4.07;3.78;;;14.30;46.50;;;;;;4919340;29;20204;-66
2022/04/21 16:28:21;;;;;;;3.75;3.50;;;14.20;46.00;;;;;;4917817;29;20697;-66
2022/04/21 16:30:48;;;;;;;3.72;3.42;;;14.10;46.50;;;;;;4918530;29;20201;-66
2022/04/21 16:33:15;;;;;;;3.38;3.22;;;14.10;47.00;;;;;;4919126;29;20206;-66
2022/04/21 16:35:43;;;;;;;3.33;3.22;;;14.10;47.40;;;;;;4919715;29;20233;-66
2022/04/21 16:38:12;;;;;;;3.80;2.97;;;14.00;46.90;;;;;;4922064;29;20225;-65
2022/04/21 16:40:39;;;;;;;3.30;3.10;;;14.00;47.20;;;;;;4922913;29;20291;-66
2022/04/21 16:43:07;;;;;;;3.50;3.20;;;14.00;47.20;;;;;;4923158;29;20194;-66
2022/04/21 16:45:35;;;;;;;2.55;2.45;;;14.00;47.40;;;;;;4923521;29;20212;-66
2022/04/21 16:48:02;;;;;;;3.70;3.33;;;14.00;47.30;;;;;;4921170;29;20672;-66
2022/04/21 16:50:30;;;;;;;3.20;3.00;;;13.90;47.40;;;;;;4920925;29;20237;-65
2022/04/21 16:52:58;;;;;;;3.05;2.95;;;13.90;47.10;;;;;;4921734;29;20328;-65
2022/04/21 16:55:27;;;;;;;4.15;3.13;;;13.80;47.20;;;;;;4921681;29;20221;-64
2022/04/21 16:57:55;;;;;;;4.70;2.90;;;13.70;47.50;;;;;;4921829;29;20562;-64
2022/04/21 17:03:07;;;;;;;4.03;2.72;;;13.70;48.20;;;;;;4921446;29;20188;-68
2022/04/21 17:05:35;;;;;;;3.17;2.85;;;13.70;48.40;;;;;;4921794;29;20190;-68
2022/04/21 17:08:02;;;;;;;3.95;3.25;;;13.60;48.60;;;;;;4920892;29;20275;-67
2022/04/21 17:10:31;;;;;;;3.28;3.05;;;13.60;49.10;;;;;;4922274;29;20265;-68
2022/04/21 17:12:59;;;;;;;3.83;3.20;;;13.60;49.20;;;;;;4922408;29;20673;-68
2022/04/21 17:15:26;;;;;;;3.10;2.80;;;13.50;49.40;;;;;;4922002;29;20689;-68
2022/04/21 17:17:54;;;;;;;2.78;2.67;;;13.50;50.10;;;;;;4922362;29;20305;-67
2022/04/21 17:20:21;;;;;;;3.65;3.47;;;13.50;49.90;;;;;;4922055;29;20212;-68
2022/04/21 17:22:49;;;;;;;3.78;3.47;;;13.50;49.90;;;;;;4922230;29;20220;-68
2022/04/21 17:25:16;;;;;;;2.90;2.63;;;13.40;49.70;;;;;;4922354;29;20234;-66
2022/04/21 17:27:45;;;;;;;2.92;2.72;;;13.40;50.20;;;;;;4921124;29;20229;-67
2022/04/21 17:30:12;;;;;;;4.70;3.40;;;13.40;50.40;;;;;;4921238;29;20194;-68
2022/04/21 17:32:39;;;;;;;3.47;3.28;;;13.30;50.10;;;;;;4921689;29;20312;-67
2022/04/21 17:35:07;;;;;;;3.70;3.40;;;13.30;50.50;;;;;;4919082;29;20242;-67
2022/04/21 17:37:34;;;;;;;2.90;2.70;;;13.20;51.30;;;;;;4917594;29;20308;-67
2022/04/21 17:40:01;;;;;;;4.20;3.40;;;13.20;51.80;;;;;;4917574;29;20296;-67
2022/04/21 17:42:28;;;;;;;3.33;3.13;;;13.10;51.70;;;;;;4917576;29;20205;-67
2022/04/21 17:44:56;;;;;;;3.72;3.53;;;13.10;51.70;;;;;;4917535;29;20237;-69
2022/04/21 17:47:23;;;;;;;3.83;3.60;;;13.10;51.10;;;;;;4917822;29;20300;-69
2022/04/21 17:49:50;;;;;;;3.58;3.42;;;13.00;51.00;;;;;;4917939;29;20304;-69
2022/04/21 17:52:18;;;;;;;3.75;3.50;;;13.00;51.00;;;;;;4918025;29;20296;-70
2022/04/21 17:54:45;;;;;;;4.15;3.38;;;12.90;50.90;;;;;;4917983;29;20630;-70
2022/04/21 17:57:12;;;;;;;3.13;2.80;;;12.80;50.90;;;;;;4917696;29;20312;-69
2022/04/21 17:59:40;;;;;;;3.63;3.33;;;12.80;50.90;;;;;;4917473;29;20236;-69
2022/04/21 18:02:08;;;;;;;3.25;3.05;;;12.70;51.00;;;;;;4917528;29;20658;-69
2022/04/21 18:04:36;;;;;;;3.20;2.97;;;12.70;51.00;;;;;;4917644;29;20229;-69
2022/04/21 18:07:04;;;;;;;3.30;3.10;;;12.70;51.10;;;;;;4917664;29;20206;-68
2022/04/21 18:09:31;;;;;;;3.75;3.47;;;12.60;51.40;;;;;;4917558;29;20288;-69
2022/04/21 18:11:58;;;;;;;4.47;3.63;;;12.60;51.90;;;;;;4917622;29;20284;-69
2022/04/21 18:14:25;;;;;;;4.43;3.97;;;12.50;53.30;;;;;;4917526;29;20216;-69
2022/04/21 18:16:52;;;;;;;4.32;4.00;;;12.50;53.30;;;;;;4917259;29;20312;-68
2022/04/21 18:19:20;;;;;;;6.03;3.63;;;12.40;53.60;;;;;;4917675;29;20292;-69
2022/04/21 18:21:49;;;;;;;4.35;3.67;;;12.40;54.60;;;;;;4917350;29;20296;-68
2022/04/21 18:24:15;;;;;;;4.15;3.28;;;12.30;55.60;;;;;;4917420;29;20220;-69
2022/04/21 18:26:42;;;;;;;4.20;3.90;;;12.20;55.40;;;;;;4917105;29;20292;-69
2022/04/21 18:29:09;;;;;;;4.43;4.05;;;12.20;56.20;;;;;;4917389;29;20251;-69
2022/04/21 18:31:37;;;;;;;4.53;4.22;;;12.10;56.90;;;;;;4917069;29;20651;-67
2022/04/21 18:34:05;;;;;;;3.78;3.58;;;12.10;57.80;;;;;;4917415;29;20300;-69